createdAt,value
2022-08-30T00:01:58.948Z,16.20
2022-08-30T00:04:25.694Z,16.20
2022-08-30T00:06:51.998Z,16.10
2022-08-30T00:09:18.201Z,16.10
2022-08-30T00:11:44.455Z,16.10
2022-08-30T00:14:10.676Z,16.00
2022-08-30T00:16:37.065Z,16.00
2022-08-30T00:19:03.273Z,16.00
2022-08-30T00:21:29.346Z,15.90
2022-08-30T00:23:55.753Z,15.90
2022-08-30T00:26:21.872Z,15.90
2022-08-30T00:28:48.217Z,15.90
2022-08-30T00:31:15.430Z,15.90
2022-08-30T00:33:42.131Z,15.90
2022-08-30T00:36:08.308Z,15.80
2022-08-30T00:38:34.707Z,15.80
2022-08-30T00:41:01.331Z,15.80
2022-08-30T00:43:29.652Z,15.80
2022-08-30T00:45:56.135Z,15.80
2022-08-30T00:48:23.181Z,15.70
2022-08-30T00:50:55.271Z,15.70
2022-08-30T00:53:27.295Z,15.70
2022-08-30T00:55:54.492Z,15.60
2022-08-30T00:58:26.269Z,15.60
2022-08-30T01:00:56.341Z,15.60
2022-08-30T01:03:23.202Z,15.60
2022-08-30T01:05:51.052Z,15.60
2022-08-30T01:08:21.447Z,15.60
2022-08-30T01:10:49.060Z,15.60
2022-08-30T01:13:16.025Z,15.50
2022-08-30T01:15:44.630Z,15.50
2022-08-30T01:18:13.578Z,15.50
2022-08-30T01:21:04.076Z,15.50
2022-08-30T01:23:32.672Z,15.40
2022-08-30T01:25:59.933Z,15.40
2022-08-30T01:28:27.788Z,15.40
2022-08-30T01:30:54.194Z,15.40
2022-08-30T01:33:21.583Z,15.40
2022-08-30T01:35:52.749Z,15.40
2022-08-30T01:38:22.975Z,15.30
2022-08-30T01:40:49.907Z,15.30
2022-08-30T01:43:18.060Z,15.30
2022-08-30T01:45:45.366Z,15.30
2022-08-30T01:48:13.021Z,15.30
2022-08-30T01:50:40.969Z,15.20
2022-08-30T01:53:08.010Z,15.20
2022-08-30T01:55:39.656Z,15.20
2022-08-30T01:58:06.118Z,15.10
2022-08-30T02:00:32.309Z,15.10
2022-08-30T02:02:58.537Z,15.10
2022-08-30T02:05:24.849Z,15.10
2022-08-30T02:07:51.045Z,15.00
2022-08-30T02:10:17.806Z,15.00
2022-08-30T02:12:43.912Z,15.00
2022-08-30T02:15:10.194Z,15.00
2022-08-30T02:17:36.407Z,15.00
2022-08-30T02:20:04.014Z,15.00
2022-08-30T02:22:30.102Z,14.90
2022-08-30T02:24:56.511Z,15.00
2022-08-30T02:27:22.960Z,14.90
2022-08-30T02:29:49.477Z,14.90
2022-08-30T02:32:15.668Z,14.90
2022-08-30T02:34:42.033Z,14.90
2022-08-30T02:37:08.424Z,14.90
2022-08-30T02:39:35.872Z,14.90
2022-08-30T02:42:02.674Z,14.90
2022-08-30T02:44:28.859Z,14.80
2022-08-30T02:46:54.921Z,14.80
2022-08-30T02:49:33.146Z,14.80
2022-08-30T02:52:00.312Z,14.80
2022-08-30T02:54:27.664Z,14.70
2022-08-30T02:56:54.621Z,14.70
2022-08-30T02:59:20.757Z,14.70
2022-08-30T03:01:46.982Z,14.70
2022-08-30T03:04:14.029Z,14.70
2022-08-30T03:06:40.159Z,14.70
2022-08-30T03:09:06.302Z,14.70
2022-08-30T03:11:32.804Z,14.70
2022-08-30T03:13:59.300Z,14.60
2022-08-30T03:16:25.519Z,14.60
2022-08-30T03:18:51.700Z,14.60
2022-08-30T03:21:17.858Z,14.60
2022-08-30T03:23:44.671Z,14.60
2022-08-30T03:26:14.237Z,14.60
2022-08-30T03:28:42.501Z,14.50
2022-08-30T03:31:08.775Z,14.50
2022-08-30T03:33:35.915Z,14.50
2022-08-30T03:36:02.492Z,14.50
2022-08-30T03:38:28.906Z,14.50
2022-08-30T03:40:55.004Z,14.50
2022-08-30T03:43:21.120Z,14.50
2022-08-30T03:45:47.591Z,14.50
2022-08-30T03:48:13.756Z,14.50
2022-08-30T03:50:39.990Z,14.50
2022-08-30T03:53:06.221Z,14.50
2022-08-30T03:55:32.766Z,14.50
2022-08-30T03:57:58.865Z,14.40
2022-08-30T04:00:25.973Z,14.50
2022-08-30T04:02:52.209Z,14.40
2022-08-30T04:05:18.629Z,14.40
2022-08-30T04:07:45.222Z,14.40
2022-08-30T04:10:11.349Z,14.40
2022-08-30T04:12:38.656Z,14.30
2022-08-30T04:15:07.189Z,14.30
2022-08-30T04:17:33.335Z,14.30
2022-08-30T04:19:59.491Z,14.30
2022-08-30T04:22:25.787Z,14.30
2022-08-30T04:24:52.213Z,14.20
2022-08-30T04:27:19.913Z,14.20
2022-08-30T04:29:47.044Z,14.20
2022-08-30T04:32:14.349Z,14.20
2022-08-30T04:34:40.800Z,14.20
2022-08-30T04:37:09.889Z,14.10
2022-08-30T04:39:37.001Z,14.20
2022-08-30T04:42:03.819Z,14.20
2022-08-30T04:44:32.428Z,14.10
2022-08-30T04:46:58.637Z,14.20
2022-08-30T04:49:25.076Z,14.20
2022-08-30T04:51:51.471Z,14.20
2022-08-30T04:54:17.716Z,14.20
2022-08-30T04:56:43.835Z,14.20
2022-08-30T04:59:09.989Z,14.20
2022-08-30T05:01:45.024Z,14.20
2022-08-30T05:04:12.567Z,14.20
2022-08-30T05:06:38.675Z,14.20
2022-08-30T05:09:05.137Z,14.20
2022-08-30T05:11:31.266Z,14.20
2022-08-30T05:13:57.684Z,14.20
2022-08-30T05:16:24.216Z,14.20
2022-08-30T05:18:51.636Z,14.20
2022-08-30T05:21:25.864Z,14.30
2022-08-30T05:23:57.526Z,14.30
2022-08-30T05:26:26.990Z,14.30
2022-08-30T05:28:53.917Z,14.30
2022-08-30T05:31:23.434Z,14.40
2022-08-30T05:33:51.200Z,14.40
2022-08-30T05:36:20.184Z,14.40
2022-08-30T05:38:46.357Z,14.50
2022-08-30T05:41:12.881Z,14.50
2022-08-30T05:43:39.665Z,14.60
2022-08-30T05:46:09.934Z,14.70
2022-08-30T05:48:36.894Z,14.80
2022-08-30T05:51:11.540Z,15.30
2022-08-30T05:53:39.286Z,15.90
2022-08-30T05:56:08.246Z,16.30
2022-08-30T05:58:34.851Z,16.60
2022-08-30T06:01:03.121Z,16.70
2022-08-30T06:03:31.738Z,16.60
2022-08-30T06:06:02.055Z,16.60
2022-08-30T06:08:28.185Z,16.90
2022-08-30T06:10:54.313Z,17.30
2022-08-30T06:13:21.662Z,17.30
2022-08-30T06:15:47.860Z,17.20
2022-08-30T06:18:14.328Z,17.20
2022-08-30T06:20:42.377Z,17.80
2022-08-30T06:23:09.241Z,18.50
2022-08-30T06:25:41.233Z,19.10
2022-08-30T06:28:10.128Z,19.60
2022-08-30T06:30:39.309Z,20.10
2022-08-30T06:33:05.712Z,20.50
2022-08-30T06:35:37.985Z,20.90
2022-08-30T06:38:08.388Z,21.20
2022-08-30T06:40:37.214Z,21.50
2022-08-30T06:43:03.488Z,21.90
2022-08-30T06:45:30.639Z,22.10
2022-08-30T06:50:31.637Z,22.80
2022-08-30T06:53:10.864Z,23.10
2022-08-30T06:55:37.064Z,23.40
2022-08-30T06:58:03.895Z,23.70
2022-08-30T07:00:30.627Z,24.00
2022-08-30T07:02:57.954Z,24.40
2022-08-30T07:05:24.461Z,24.70
2022-08-30T07:07:54.741Z,25.00
2022-08-30T07:10:21.136Z,25.30
2022-08-30T07:12:48.081Z,25.60
2022-08-30T07:15:14.555Z,25.90
2022-08-30T07:18:00.124Z,26.20
2022-08-30T07:20:26.647Z,26.40
2022-08-30T07:22:52.991Z,26.70
2022-08-30T07:25:19.924Z,27.10
2022-08-30T07:27:46.386Z,27.40
2022-08-30T07:30:13.365Z,27.70
2022-08-30T07:32:39.499Z,27.90
2022-08-30T07:35:05.882Z,28.30
2022-08-30T07:37:32.304Z,28.60
2022-08-30T07:39:58.454Z,28.90
2022-08-30T07:42:24.623Z,29.30
2022-08-30T07:44:54.720Z,29.50
2022-08-30T07:47:22.630Z,29.80
2022-08-30T07:49:49.953Z,30.20
2022-08-30T07:52:16.164Z,30.40
2022-08-30T07:54:42.408Z,30.60
2022-08-30T07:57:09.648Z,30.90
2022-08-30T07:59:36.267Z,31.10
2022-08-30T08:02:03.563Z,31.20
2022-08-30T08:04:31.138Z,31.40
2022-08-30T08:06:57.406Z,31.60
2022-08-30T08:09:23.642Z,31.90
2022-08-30T08:11:49.805Z,32.20
2022-08-30T08:16:47.777Z,32.70
2022-08-30T08:19:14.036Z,33.00
2022-08-30T08:21:40.882Z,33.40
2022-08-30T08:24:08.208Z,33.70
2022-08-30T08:26:38.776Z,33.80
2022-08-30T08:29:09.629Z,33.80
2022-08-30T08:31:36.979Z,33.80
2022-08-30T08:34:05.255Z,33.90
2022-08-30T08:36:32.810Z,34.10
2022-08-30T08:39:00.100Z,34.30
2022-08-30T08:41:34.648Z,34.40
2022-08-30T08:44:13.517Z,34.50
2022-08-30T08:47:07.185Z,34.60
2022-08-30T08:49:37.610Z,35.00
2022-08-30T08:54:46.142Z,35.80
2022-08-30T08:57:15.964Z,36.30
2022-08-30T08:59:44.682Z,36.50
2022-08-30T09:02:34.137Z,36.40
2022-08-30T09:05:02.471Z,36.40
2022-08-30T09:07:39.145Z,36.60
2022-08-30T09:10:06.832Z,36.70
2022-08-30T09:12:33.666Z,36.80
2022-08-30T09:15:24.040Z,36.90
2022-08-30T09:17:59.303Z,37.00
2022-08-30T09:20:28.088Z,37.20
2022-08-30T09:22:55.285Z,37.30
2022-08-30T09:25:30.539Z,37.30
2022-08-30T09:28:12.794Z,37.50
2022-08-30T09:30:39.948Z,38.00
2022-08-30T09:33:18.504Z,38.10
2022-08-30T09:35:48.398Z,37.90
2022-08-30T09:38:21.817Z,37.90
2022-08-30T09:41:28.366Z,38.00
2022-08-30T09:44:17.965Z,38.10
2022-08-30T09:46:50.734Z,38.20
2022-08-30T09:49:39.320Z,38.30
2022-08-30T09:52:17.872Z,38.50
2022-08-30T09:55:09.599Z,38.90
2022-08-30T09:57:43.038Z,39.20
2022-08-30T10:00:18.958Z,39.20
2022-08-30T10:03:34.886Z,39.30
2022-08-30T10:06:12.393Z,39.30
2022-08-30T10:08:51.837Z,39.30
2022-08-30T10:11:31.739Z,39.20
2022-08-30T10:14:06.482Z,39.30
2022-08-30T10:16:49.971Z,39.70
2022-08-30T10:19:29.178Z,39.90
2022-08-30T10:22:10.549Z,40.20
2022-08-30T10:24:49.567Z,40.60
2022-08-30T10:27:45.190Z,40.80
2022-08-30T10:30:14.199Z,41.00
2022-08-30T10:32:59.353Z,41.10
2022-08-30T10:35:38.631Z,41.30
2022-08-30T10:38:21.255Z,41.20
2022-08-30T10:41:13.453Z,41.20
2022-08-30T10:43:58.440Z,41.30
2022-08-30T10:46:36.973Z,41.40
2022-08-30T10:49:09.316Z,41.30
2022-08-30T10:51:58.872Z,41.40
2022-08-30T10:54:38.549Z,41.50
2022-08-30T10:57:07.848Z,41.60
2022-08-30T10:59:38.012Z,41.70
2022-08-30T11:02:23.272Z,42.00
2022-08-30T11:05:10.998Z,42.10
2022-08-30T11:07:49.253Z,42.10
2022-08-30T11:10:49.643Z,42.00
2022-08-30T11:13:35.210Z,42.10
2022-08-30T11:16:19.850Z,42.10
2022-08-30T11:18:55.745Z,42.10
2022-08-30T11:22:12.164Z,42.30
2022-08-30T11:25:15.621Z,42.50
2022-08-30T11:27:58.794Z,42.70
2022-08-30T11:30:26.930Z,42.70
2022-08-30T11:33:00.369Z,43.00
2022-08-30T11:36:00.849Z,43.20
2022-08-30T11:38:27.623Z,43.20
2022-08-30T11:41:00.114Z,43.20
2022-08-30T11:43:36.609Z,43.30
2022-08-30T11:46:23.764Z,43.20
2022-08-30T11:49:06.624Z,43.10
2022-08-30T11:52:08.185Z,43.30
2022-08-30T11:55:02.570Z,43.40
2022-08-30T11:57:44.860Z,43.30
2022-08-30T12:00:34.844Z,43.40
2022-08-30T12:03:01.509Z,43.50
2022-08-30T12:05:49.014Z,43.40
2022-08-30T12:08:20.633Z,43.40
2022-08-30T12:10:51.527Z,43.40
2022-08-30T12:13:38.852Z,43.20
2022-08-30T12:16:15.604Z,42.90
2022-08-30T12:18:58.640Z,42.90
2022-08-30T12:21:29.079Z,42.90
2022-08-30T12:24:18.117Z,42.50
2022-08-30T12:26:46.687Z,42.60
2022-08-30T12:29:27.701Z,42.50
2022-08-30T12:31:58.076Z,42.30
2022-08-30T12:34:48.354Z,42.10
2022-08-30T12:37:26.466Z,42.10
2022-08-30T12:43:20.589Z,42.10
2022-08-30T12:57:10.025Z,41.30
2022-08-30T12:59:59.579Z,41.10
2022-08-30T13:17:18.178Z,39.40
2022-08-30T13:25:34.473Z,38.70
2022-08-30T13:31:16.695Z,38.30
2022-08-30T13:33:45.530Z,38.10
2022-08-30T13:39:05.091Z,37.80
2022-08-30T13:41:34.759Z,37.60
2022-08-30T13:44:12.692Z,37.50
2022-08-30T13:46:43.079Z,37.50
2022-08-30T13:52:19.843Z,37.10
2022-08-30T13:54:55.105Z,36.80
2022-08-30T14:00:16.616Z,35.80
2022-08-30T14:02:49.022Z,35.40
2022-08-30T14:05:46.782Z,35.30
2022-08-30T14:08:44.277Z,35.20
2022-08-30T14:10:55.371Z,35.20
2022-08-30T14:13:22.689Z,35.10
2022-08-30T14:16:26.593Z,34.90
2022-08-30T14:18:37.730Z,34.60
2022-08-30T14:21:04.384Z,34.20
2022-08-30T14:23:31.777Z,33.90
2022-08-30T14:25:59.633Z,33.70
2022-08-30T14:28:31.749Z,33.30
2022-08-30T14:30:57.912Z,32.90
2022-08-30T14:33:27.841Z,32.40
2022-08-30T14:35:57.112Z,32.00
2022-08-30T14:41:03.386Z,31.50
2022-08-30T14:43:29.685Z,31.10
2022-08-30T14:45:58.889Z,31.00
2022-08-30T14:48:25.217Z,30.90
2022-08-30T14:50:54.372Z,30.80
2022-08-30T14:53:22.914Z,30.60
2022-08-30T14:55:49.449Z,30.50
2022-08-30T14:58:17.384Z,30.40
2022-08-30T15:00:53.145Z,30.20
2022-08-30T15:03:19.382Z,30.20
2022-08-30T15:05:50.258Z,30.00
2022-08-30T15:08:19.680Z,29.90
2022-08-30T15:10:46.741Z,29.70
2022-08-30T15:13:13.090Z,29.60
2022-08-30T15:15:44.183Z,29.60
2022-08-30T15:18:10.719Z,29.50
2022-08-30T15:20:37.301Z,29.50
2022-08-30T15:23:05.100Z,29.40
2022-08-30T15:25:31.447Z,29.20
2022-08-30T15:27:57.653Z,29.10
2022-08-30T15:30:23.746Z,28.90
2022-08-30T15:32:50.410Z,28.90
2022-08-30T15:35:16.882Z,28.70
2022-08-30T15:37:44.155Z,28.60
2022-08-30T15:40:10.963Z,28.60
2022-08-30T15:42:37.328Z,28.50
2022-08-30T15:45:04.239Z,28.40
2022-08-30T15:47:32.751Z,28.20
2022-08-30T15:50:02.611Z,28.10
2022-08-30T15:52:30.481Z,28.10
2022-08-30T15:54:57.048Z,27.90
2022-08-30T15:57:30.601Z,27.80
2022-08-30T15:59:57.693Z,27.70
2022-08-30T16:02:27.874Z,27.60
2022-08-30T16:04:54.700Z,27.60
2022-08-30T16:07:20.987Z,27.50
2022-08-30T16:09:47.638Z,27.30
2022-08-30T16:12:23.329Z,27.30
2022-08-30T16:14:50.604Z,27.20
2022-08-30T16:17:18.172Z,27.10
2022-08-30T16:19:44.654Z,27.10
2022-08-30T16:22:11.098Z,27.00
2022-08-30T16:24:39.855Z,27.00
2022-08-30T16:27:08.815Z,26.90
2022-08-30T16:29:35.660Z,26.80
2022-08-30T16:32:02.407Z,26.70
2022-08-30T16:34:29.236Z,26.60
2022-08-30T16:36:55.445Z,26.50
2022-08-30T16:39:21.622Z,26.40
2022-08-30T16:41:48.264Z,26.20
2022-08-30T16:44:16.045Z,26.10
2022-08-30T16:46:53.331Z,26.00
2022-08-30T16:49:22.507Z,25.90
2022-08-30T16:51:49.259Z,25.80
2022-08-30T16:54:17.011Z,25.70
2022-08-30T16:56:43.237Z,25.60
2022-08-30T16:59:13.272Z,25.50
2022-08-30T17:01:41.790Z,25.50
2022-08-30T17:04:09.960Z,25.30
2022-08-30T17:06:41.078Z,25.30
2022-08-30T17:09:08.483Z,25.20
2022-08-30T17:11:38.207Z,25.10
2022-08-30T17:14:07.205Z,25.00
2022-08-30T17:16:36.952Z,24.90
2022-08-30T17:19:05.558Z,24.80
2022-08-30T17:21:38.930Z,24.70
2022-08-30T17:24:05.661Z,24.60
2022-08-30T17:26:34.049Z,24.50
2022-08-30T17:29:00.940Z,24.40
2022-08-30T17:31:29.613Z,24.30
2022-08-30T17:34:02.888Z,24.20
2022-08-30T17:36:35.430Z,24.20
2022-08-30T17:39:11.362Z,24.10
2022-08-30T17:41:45.238Z,24.00
2022-08-30T17:44:19.761Z,23.90
2022-08-30T17:46:47.483Z,23.80
2022-08-30T17:49:16.321Z,23.70
2022-08-30T17:51:45.652Z,23.60
2022-08-30T17:54:20.687Z,23.50
2022-08-30T17:56:51.657Z,23.40
2022-08-30T17:59:19.050Z,23.30
2022-08-30T18:01:51.250Z,23.20
2022-08-30T18:04:20.456Z,23.10
2022-08-30T18:06:47.377Z,23.10
2022-08-30T18:09:15.124Z,23.00
2022-08-30T18:11:41.803Z,23.00
2022-08-30T18:14:13.638Z,22.80
2022-08-30T18:16:53.839Z,22.70
2022-08-30T18:19:25.031Z,22.70
2022-08-30T18:21:52.152Z,22.70
2022-08-30T18:24:21.126Z,22.60
2022-08-30T18:26:47.546Z,22.50
2022-08-30T18:29:14.362Z,22.40
2022-08-30T18:31:43.070Z,22.30
2022-08-30T18:34:12.270Z,22.30
2022-08-30T18:36:42.744Z,22.20
2022-08-30T18:39:14.534Z,22.10
2022-08-30T18:41:43.245Z,22.00
2022-08-30T18:44:27.336Z,21.90
2022-08-30T18:46:56.781Z,21.80
2022-08-30T18:49:25.933Z,21.80
2022-08-30T18:51:56.629Z,21.70
2022-08-30T18:54:23.666Z,21.60
2022-08-30T18:56:50.695Z,21.50
2022-08-30T18:59:18.518Z,21.50
2022-08-30T19:01:46.708Z,21.40
2022-08-30T19:04:30.061Z,21.40
2022-08-30T19:07:06.548Z,21.30
2022-08-30T19:09:34.477Z,21.30
2022-08-30T19:12:02.151Z,21.20
2022-08-30T19:14:31.575Z,21.20
2022-08-30T19:17:04.601Z,21.10
2022-08-30T19:22:26.849Z,21.00
2022-08-30T19:24:55.939Z,20.90
2022-08-30T19:30:20.553Z,20.80
2022-08-30T19:32:51.697Z,20.70
2022-08-30T19:35:21.654Z,20.70
2022-08-30T19:37:48.057Z,20.60
2022-08-30T19:40:16.269Z,20.60
2022-08-30T19:42:46.519Z,20.50
2022-08-30T19:45:17.212Z,20.40
2022-08-30T19:47:45.718Z,20.30
2022-08-30T19:50:16.627Z,20.20
2022-08-30T19:52:45.669Z,20.20
2022-08-30T19:55:14.386Z,20.20
2022-08-30T19:57:42.939Z,20.10
2022-08-30T20:00:12.140Z,20.10
2022-08-30T20:02:43.227Z,20.00
2022-08-30T20:05:10.979Z,20.00
2022-08-30T20:07:39.144Z,19.90
2022-08-30T20:10:11.484Z,19.90
2022-08-30T20:12:45.501Z,19.80
2022-08-30T20:15:17.169Z,19.70
2022-08-30T20:18:03.403Z,19.70
2022-08-30T20:20:33.399Z,19.60
2022-08-30T20:23:00.076Z,19.60
2022-08-30T20:24:32.929Z,21.10
2022-08-30T20:25:28.472Z,19.50
2022-08-30T20:27:55.461Z,19.50
2022-08-30T20:30:21.854Z,19.40
2022-08-30T20:32:48.669Z,19.40
2022-08-30T20:35:16.268Z,19.30
2022-08-30T20:37:43.678Z,19.30
2022-08-30T20:40:15.684Z,19.30
2022-08-30T20:42:44.729Z,19.20
2022-08-30T20:45:13.887Z,19.20
2022-08-30T20:47:42.162Z,19.10
2022-08-30T20:50:15.239Z,19.10
2022-08-30T20:52:42.182Z,19.10
2022-08-30T20:55:10.252Z,19.10
2022-08-30T20:57:37.406Z,19.10
2022-08-30T21:00:08.065Z,19.00
2022-08-30T21:02:36.412Z,19.00
2022-08-30T21:05:06.423Z,19.00
2022-08-30T21:07:32.853Z,19.00
2022-08-30T21:09:59.175Z,19.00
2022-08-30T21:12:26.039Z,18.90
2022-08-30T21:14:52.812Z,18.90
2022-08-30T21:17:19.038Z,18.90
2022-08-30T21:19:45.657Z,18.90
2022-08-30T21:22:12.625Z,18.90
2022-08-30T21:24:38.862Z,18.80
2022-08-30T21:27:05.101Z,18.80
2022-08-30T21:29:32.553Z,18.80
2022-08-30T21:31:58.972Z,18.70
2022-08-30T21:34:25.116Z,18.70
2022-08-30T21:36:51.523Z,18.70
2022-08-30T21:39:22.280Z,18.60
2022-08-30T21:41:54.107Z,18.60
2022-08-30T21:44:24.447Z,18.60
2022-08-30T21:46:52.650Z,18.60
2022-08-30T21:49:21.589Z,18.60
2022-08-30T21:51:49.869Z,18.50
2022-08-30T21:54:17.693Z,18.50
2022-08-30T21:56:46.121Z,18.50
2022-08-30T21:59:14.591Z,18.40
2022-08-30T22:01:45.004Z,18.40
2022-08-30T22:04:13.117Z,18.30
2022-08-30T22:06:43.888Z,18.30
2022-08-30T22:09:15.573Z,18.20
2022-08-30T22:11:43.360Z,18.20
2022-08-30T22:14:11.994Z,18.20
2022-08-30T22:16:39.997Z,18.10
2022-08-30T22:19:09.637Z,18.10
2022-08-30T22:21:41.114Z,18.10
2022-08-30T22:24:08.087Z,18.10
2022-08-30T22:26:34.906Z,18.10
2022-08-30T22:29:02.270Z,18.00
2022-08-30T22:31:29.380Z,18.00
2022-08-30T22:33:55.602Z,17.90
2022-08-30T22:36:32.366Z,17.90
2022-08-30T22:39:00.741Z,17.90
2022-08-30T22:41:37.894Z,17.80
2022-08-30T22:44:06.014Z,17.80
2022-08-30T22:46:34.333Z,17.80
2022-08-30T22:49:03.016Z,17.80
2022-08-30T22:51:29.349Z,17.70
2022-08-30T22:53:55.882Z,17.70
2022-08-30T22:56:24.824Z,17.70
2022-08-30T22:58:51.998Z,17.60
2022-08-30T23:01:31.955Z,17.70
2022-08-30T23:04:00.348Z,17.60
2022-08-30T23:06:27.365Z,17.60
2022-08-30T23:08:54.028Z,17.60
2022-08-30T23:11:21.018Z,17.50
2022-08-30T23:13:47.913Z,17.50
2022-08-30T23:16:15.526Z,17.50
2022-08-30T23:18:42.842Z,17.40
2022-08-30T23:21:14.385Z,17.40
2022-08-30T23:24:00.179Z,17.40
2022-08-30T23:26:45.905Z,17.40
2022-08-30T23:29:31.022Z,17.30
2022-08-30T23:32:16.435Z,17.30
2022-08-30T23:35:02.669Z,17.30
2022-08-30T23:37:48.584Z,17.30
2022-08-30T23:40:39.796Z,17.20
2022-08-30T23:43:25.126Z,17.20
2022-08-30T23:46:10.029Z,17.10
2022-08-30T23:48:55.096Z,17.10
2022-08-30T23:51:40.030Z,17.10
2022-08-30T23:54:25.746Z,17.10
2022-08-30T23:57:10.357Z,17.00
2022-08-30T23:59:55.322Z,17.00
